Time;durP1;ratioP1;P1;durP2;ratioP2;P2;SDS_P1;SDS_P2;PMS_P1;PMS_P2;Temp;Humidity;BMP_temperature;BMP_pressure;BME280_temperature;BME280_humidity;BME280_pressure;Samples;Min_cycle;Max_cycle;Signal;HPM_P1;HPM_P2
2022/01/28 00:00:35;;;;;;;8.27;5.07;;;;;;;;;;5015068;28;20362;-67
2022/01/28 00:03:21;;;;;;;9.13;5.35;;;;;;;;;;5000468;28;20127;-68
2022/01/28 00:06:07;;;;;;;8.40;5.65;;;;;;;;;;5014341;28;20041;-76
2022/01/28 00:08:52;;;;;;;9.95;6.20;;;;;;;;;;5015024;28;20029;-69
2022/01/28 00:11:37;;;;;;;10.43;6.82;;;;;;;;;;5014925;28;20032;-68
2022/01/28 00:14:41;;;;;;;9.63;5.53;;;;;;;;;;5001050;28;20033;-68
2022/01/28 00:18:03;;;;;;;8.57;5.40;;;;;;;;;;5015265;28;20099;-68
2022/01/28 00:39:06;;;;;;;8.57;5.10;;;;;;;;;;5020801;28;20021;-69
2022/01/28 00:41:51;;;;;;;8.15;5.10;;;;;;;;;;5001807;28;20045;-67
2022/01/28 00:44:36;;;;;;;8.57;4.80;;;;;;;;;;4987237;28;20072;-66
2022/01/28 00:47:22;;;;;;;8.93;5.22;;;;;;;;;;5006246;28;20124;-67
2022/01/28 00:50:07;;;;;;;7.47;4.50;;;;;;;;;;5001630;28;20075;-70
2022/01/28 00:52:53;;;;;;;10.70;5.03;;;;;;;;;;4999264;28;20140;-68
2022/01/28 00:55:38;;;;;;;7.70;4.70;;;;;;;;;;4991604;28;20436;-67
2022/01/28 00:58:23;;;;;;;8.57;4.88;;;;;;;;;;5012132;28;20033;-68
2022/01/28 01:01:09;;;;;;;8.30;5.38;;;;;;;;;;5013623;28;20033;-68
2022/01/28 01:03:54;;;;;;;6.35;4.35;;;;;;;;;;5019190;28;20389;-76
2022/01/28 01:06:39;;;;;;;11.18;5.22;;;;;;;;;;4991733;28;20067;-75
2022/01/28 01:09:24;;;;;;;6.80;4.57;;;;;;;;;;5014858;28;20025;-77
2022/01/28 01:12:11;;;;;;;10.77;4.80;;;;;;;;;;5013085;28;20404;-74
2022/01/28 01:14:56;;;;;;;8.55;4.65;;;;;;;;;;5014709;28;20025;-76
2022/01/28 01:17:52;;;;;;;8.27;4.78;;;;;;;;;;5013614;28;20091;-77
2022/01/28 01:20:57;;;;;;;7.40;4.32;;;;;;;;;;5014392;28;20120;-73
2022/01/28 01:23:50;;;;;;;9.98;4.65;;;;;;;;;;5006447;28;20044;-69
2022/01/28 01:26:39;;;;;;;7.18;4.05;;;;;;;;;;5001343;28;20025;-67
2022/01/28 01:29:24;;;;;;;6.95;4.35;;;;;;;;;;4995545;28;20025;-69
2022/01/28 01:32:13;;;;;;;7.03;4.45;;;;;;;;;;5012607;28;20037;-67
2022/01/28 01:34:59;;;;;;;8.68;4.95;;;;;;;;;;5003162;28;20284;-67
2022/01/28 01:37:44;;;;;;;9.13;5.30;;;;;;;;;;4997112;28;20037;-69
2022/01/28 01:40:40;;;;;;;7.50;4.85;;;;;;;;;;5012140;28;20495;-68
2022/01/28 01:46:37;;;;;;;7.13;4.90;;;;;;;;;;5014764;28;20033;-67
2022/01/28 01:52:23;;;;;;;9.18;5.50;;;;;;;;;;5025024;28;20060;-66
2022/01/28 01:55:08;;;;;;;7.75;4.68;;;;;;;;;;5013465;28;20025;-66
2022/01/28 01:57:54;;;;;;;7.32;4.53;;;;;;;;;;5012211;28;20033;-67
2022/01/28 02:00:39;;;;;;;7.90;4.32;;;;;;;;;;5008128;28;20045;-74
2022/01/28 02:03:24;;;;;;;7.18;5.22;;;;;;;;;;5012182;28;20040;-72
2022/01/28 02:06:10;;;;;;;7.88;4.95;;;;;;;;;;5010257;28;20172;-71
2022/01/28 02:08:55;;;;;;;8.93;4.63;;;;;;;;;;5007333;28;20112;-73
2022/01/28 02:11:41;;;;;;;8.40;4.70;;;;;;;;;;5001290;28;20021;-74
2022/01/28 02:14:26;;;;;;;6.75;4.22;;;;;;;;;;4995041;28;20025;-70
2022/01/28 02:17:11;;;;;;;7.80;4.90;;;;;;;;;;4999444;28;20034;-73
2022/01/28 02:19:56;;;;;;;7.15;4.45;;;;;;;;;;5003326;28;20381;-73
2022/01/28 02:22:42;;;;;;;8.40;4.72;;;;;;;;;;5011680;28;20029;-73
2022/01/28 02:25:28;;;;;;;9.45;5.10;;;;;;;;;;5011402;28;20079;-74
2022/01/28 02:28:17;;;;;;;8.10;4.70;;;;;;;;;;5013056;28;20029;-73
2022/01/28 02:31:03;;;;;;;7.90;4.40;;;;;;;;;;5008025;28;20354;-73
2022/01/28 02:33:50;;;;;;;8.63;4.57;;;;;;;;;;4984262;28;20516;-69
2022/01/28 02:36:36;;;;;;;9.45;5.07;;;;;;;;;;5012367;28;20040;-70
2022/01/28 02:39:21;;;;;;;9.88;4.68;;;;;;;;;;5012634;28;20415;-69
2022/01/28 02:42:19;;;;;;;8.60;5.22;;;;;;;;;;5012731;28;20135;-69
2022/01/28 02:45:07;;;;;;;8.48;4.53;;;;;;;;;;5008100;28;20167;-71
2022/01/28 02:48:01;;;;;;;7.85;4.00;;;;;;;;;;4995947;28;20024;-70
2022/01/28 02:59:17;;;;;;;10.07;4.32;;;;;;;;;;5012768;28;20079;-70
2022/01/28 03:02:03;;;;;;;7.85;4.75;;;;;;;;;;4993833;28;20048;-67
2022/01/28 03:07:52;;;;;;;7.63;4.03;;;;;;;;;;5012838;28;20112;-68
2022/01/28 03:16:14;;;;;;;7.20;3.75;;;;;;;;;;5010577;28;20044;-71
2022/01/28 03:19:13;;;;;;;8.13;4.18;;;;;;;;;;4999367;28;20029;-73
2022/01/28 03:22:03;;;;;;;7.57;4.07;;;;;;;;;;4998826;28;20449;-71
2022/01/28 03:24:51;;;;;;;5.88;3.60;;;;;;;;;;5015088;28;20126;-74
2022/01/28 03:27:55;;;;;;;10.57;4.53;;;;;;;;;;4998083;28;20121;-71
2022/01/28 03:30:40;;;;;;;9.50;4.10;;;;;;;;;;5002975;28;20033;-73
2022/01/28 03:33:26;;;;;;;9.20;4.70;;;;;;;;;;5016382;28;20131;-72
2022/01/28 03:36:12;;;;;;;10.32;4.03;;;;;;;;;;5016120;28;20022;-71
2022/01/28 03:38:57;;;;;;;8.23;3.72;;;;;;;;;;5014030;28;20025;-71
2022/01/28 03:41:43;;;;;;;7.60;4.00;;;;;;;;;;5017893;28;20085;-71
2022/01/28 03:44:28;;;;;;;9.55;5.05;;;;;;;;;;5001627;28;20103;-74
2022/01/28 03:47:13;;;;;;;8.02;4.35;;;;;;;;;;5014750;28;20036;-67
2022/01/28 03:49:58;;;;;;;9.13;4.10;;;;;;;;;;5021865;28;20029;-66
2022/01/28 03:52:44;;;;;;;10.20;4.55;;;;;;;;;;5002174;28;20033;-67
2022/01/28 03:55:29;;;;;;;7.35;3.72;;;;;;;;;;5002640;28;20240;-69
2022/01/28 03:58:15;;;;;;;7.57;4.03;;;;;;;;;;5017768;28;20057;-67
2022/01/28 04:01:00;;;;;;;8.57;4.68;;;;;;;;;;4994135;28;20029;-67
2022/01/28 04:12:30;;;;;;;8.32;4.28;;;;;;;;;;5009357;28;20030;-73
2022/01/28 04:15:38;;;;;;;8.60;4.25;;;;;;;;;;5014225;28;20071;-72
2022/01/28 04:18:23;;;;;;;8.38;4.70;;;;;;;;;;4997282;28;20060;-72
2022/01/28 04:21:08;;;;;;;8.95;5.07;;;;;;;;;;5008388;28;20037;-72
2022/01/28 04:23:54;;;;;;;11.75;4.90;;;;;;;;;;5000521;28;20074;-68
2022/01/28 04:26:39;;;;;;;7.75;4.93;;;;;;;;;;5029299;28;20029;-66
2022/01/28 04:29:24;;;;;;;8.00;4.13;;;;;;;;;;4998083;28;20358;-67
2022/01/28 04:32:10;;;;;;;8.35;5.20;;;;;;;;;;4997924;28;20029;-66
2022/01/28 04:34:55;;;;;;;11.02;4.78;;;;;;;;;;5001882;28;20156;-71
2022/01/28 04:38:01;;;;;;;10.30;4.65;;;;;;;;;;5015115;28;20068;-67
2022/01/28 04:43:58;;;;;;;11.73;6.28;;;;;;;;;;5015482;28;20029;-69
2022/01/28 04:46:55;;;;;;;11.18;5.65;;;;;;;;;;5018302;28;20025;-68
2022/01/28 05:16:09;;;;;;;10.65;5.72;;;;;;;;;;5013579;28;20504;-74
2022/01/28 05:27:45;;;;;;;11.60;5.40;;;;;;;;;;5013104;28;20384;-72
2022/01/28 05:30:31;;;;;;;9.23;5.30;;;;;;;;;;5000240;28;20033;-72
2022/01/28 05:33:16;;;;;;;12.80;5.93;;;;;;;;;;5013718;28;20497;-73
2022/01/28 05:36:01;;;;;;;10.90;5.65;;;;;;;;;;5013945;28;20029;-72
2022/01/28 05:38:46;;;;;;;11.65;5.75;;;;;;;;;;5000314;28;20556;-66
2022/01/28 05:41:32;;;;;;;13.52;5.35;;;;;;;;;;5003160;28;20223;-73
2022/01/28 05:44:21;;;;;;;8.70;5.60;;;;;;;;;;4976370;28;20037;-74
2022/01/28 05:47:06;;;;;;;11.60;5.82;;;;;;;;;;4991579;28;20027;-77
2022/01/28 05:49:51;;;;;;;9.98;5.60;;;;;;;;;;4982881;28;20030;-75
2022/01/28 05:52:36;;;;;;;12.18;4.80;;;;;;;;;;4980032;28;20052;-75
2022/01/28 05:55:22;;;;;;;9.82;5.75;;;;;;;;;;4980423;28;20448;-75
2022/01/28 05:58:07;;;;;;;10.07;5.70;;;;;;;;;;4993044;28;20048;-77
2022/01/28 06:00:52;;;;;;;11.25;6.15;;;;;;;;;;4994119;28;20022;-78
2022/01/28 06:03:37;;;;;;;10.27;5.97;;;;;;;;;;4993416;28;20030;-78
2022/01/28 06:06:24;;;;;;;13.18;5.35;;;;;;;;;;4993161;28;20030;-77
2022/01/28 06:09:09;;;;;;;13.20;6.00;;;;;;;;;;4992737;28;20034;-77
2022/01/28 06:11:54;;;;;;;12.30;6.20;;;;;;;;;;4993626;28;20145;-78
2022/01/28 06:14:39;;;;;;;10.00;5.10;;;;;;;;;;4993123;28;20576;-72
2022/01/28 06:17:24;;;;;;;10.32;5.40;;;;;;;;;;4993909;28;20065;-72
2022/01/28 06:20:11;;;;;;;11.68;6.38;;;;;;;;;;4979345;28;20022;-75
2022/01/28 06:22:57;;;;;;;10.25;6.53;;;;;;;;;;4980513;28;20076;-72
2022/01/28 06:25:43;;;;;;;12.27;6.22;;;;;;;;;;4994280;28;20030;-74
2022/01/28 06:28:29;;;;;;;11.38;5.68;;;;;;;;;;4992193;28;20038;-73
2022/01/28 06:31:14;;;;;;;12.80;7.57;;;;;;;;;;4991223;28;20389;-72
2022/01/28 06:34:00;;;;;;;13.13;6.85;;;;;;;;;;4979230;28;20050;-66
2022/01/28 06:36:45;;;;;;;10.00;5.55;;;;;;;;;;4994032;28;20465;-72
2022/01/28 06:39:32;;;;;;;10.68;6.15;;;;;;;;;;4983949;28;20092;-74
2022/01/28 06:42:17;;;;;;;12.05;6.30;;;;;;;;;;5009927;28;20049;-74
2022/01/28 06:45:03;;;;;;;11.20;6.03;;;;;;;;;;5009109;28;20395;-72
2022/01/28 06:47:49;;;;;;;12.20;6.18;;;;;;;;;;5013842;28;20029;-75
2022/01/28 06:50:34;;;;;;;12.32;6.30;;;;;;;;;;5011890;28;20124;-68
2022/01/28 06:53:19;;;;;;;11.82;5.63;;;;;;;;;;5012585;28;20431;-68
2022/01/28 06:56:05;;;;;;;12.23;5.97;;;;;;;;;;5008535;28;20424;-69
2022/01/28 06:58:50;;;;;;;12.30;5.75;;;;;;;;;;5016386;28;20033;-69
2022/01/28 07:01:36;;;;;;;13.05;5.75;;;;;;;;;;5014880;28;20037;-69
2022/01/28 07:04:21;;;;;;;14.07;6.95;;;;;;;;;;5013599;28;20041;-68
2022/01/28 07:07:07;;;;;;;14.73;7.20;;;;;;;;;;5015002;28;20025;-69
2022/01/28 07:09:52;;;;;;;10.07;6.25;;;;;;;;;;5003060;28;20028;-72
2022/01/28 07:12:38;;;;;;;13.45;6.90;;;;;;;;;;4995146;28;20029;-70
2022/01/28 07:15:24;;;;;;;12.80;7.13;;;;;;;;;;5008425;28;20029;-70
2022/01/28 07:18:10;;;;;;;12.50;6.75;;;;;;;;;;5012689;28;20403;-69
2022/01/28 07:20:55;;;;;;;14.38;7.63;;;;;;;;;;5014255;28;20114;-71
2022/01/28 07:23:40;;;;;;;13.00;6.70;;;;;;;;;;5015190;28;20021;-69
2022/01/28 07:26:25;;;;;;;12.52;6.60;;;;;;;;;;4997163;28;20556;-75
2022/01/28 07:29:13;;;;;;;15.68;8.23;;;;;;;;;;4994207;28;20423;-71
2022/01/28 07:31:58;;;;;;;12.68;7.28;;;;;;;;;;4989909;28;20036;-74
2022/01/28 07:34:44;;;;;;;13.98;7.15;;;;;;;;;;4996394;28;20097;-77
2022/01/28 07:37:29;;;;;;;12.85;6.90;;;;;;;;;;5001066;28;20069;-74
2022/01/28 07:40:15;;;;;;;12.10;7.38;;;;;;;;;;5015962;28;20021;-74
2022/01/28 07:43:00;;;;;;;12.55;6.78;;;;;;;;;;4998747;28;20037;-76
2022/01/28 07:45:45;;;;;;;12.27;7.60;;;;;;;;;;4995681;28;20041;-68
2022/01/28 07:48:30;;;;;;;14.85;8.13;;;;;;;;;;4989869;28;20465;-66
2022/01/28 07:51:16;;;;;;;12.93;7.35;;;;;;;;;;5009353;28;20038;-68
2022/01/28 07:54:01;;;;;;;11.80;7.47;;;;;;;;;;4982389;28;20569;-67
2022/01/28 07:56:52;;;;;;;14.55;6.97;;;;;;;;;;4997730;28;20040;-65
2022/01/28 07:59:37;;;;;;;18.13;6.63;;;;;;;;;;4982088;28;20017;-64
2022/01/28 08:02:22;;;;;;;12.18;5.90;;;;;;;;;;4995400;28;20033;-66
2022/01/28 08:05:07;;;;;;;11.77;6.13;;;;;;;;;;4993616;28;20432;-71
2022/01/28 08:07:53;;;;;;;10.43;6.18;;;;;;;;;;5008876;28;20030;-65
2022/01/28 08:10:38;;;;;;;14.68;7.03;;;;;;;;;;4990524;28;20034;-64
2022/01/28 08:13:23;;;;;;;11.82;6.78;;;;;;;;;;4979759;28;20514;-64
2022/01/28 08:16:08;;;;;;;13.32;6.82;;;;;;;;;;4994458;28;20026;-69
2022/01/28 08:18:54;;;;;;;11.23;5.05;;;;;;;;;;4992054;28;20114;-70
2022/01/28 08:21:39;;;;;;;11.60;5.88;;;;;;;;;;4981282;28;20037;-70
2022/01/28 08:24:24;;;;;;;14.77;7.00;;;;;;;;;;4991669;28;20029;-67
2022/01/28 08:27:10;;;;;;;11.98;5.95;;;;;;;;;;4995661;28;20425;-68
2022/01/28 08:29:55;;;;;;;12.90;5.88;;;;;;;;;;4991360;28;20034;-69
2022/01/28 08:32:40;;;;;;;12.25;5.30;;;;;;;;;;4994945;28;20452;-69
2022/01/28 08:35:30;;;;;;;11.73;5.53;;;;;;;;;;5006357;28;20081;-69
2022/01/28 08:38:24;;;;;;;9.65;4.85;;;;;;;;;;4994836;28;20037;-68
2022/01/28 08:41:12;;;;;;;11.52;5.43;;;;;;;;;;4998617;28;20037;-81
2022/01/28 08:43:58;;;;;;;11.60;5.43;;;;;;;;;;4979088;28;20179;-76
2022/01/28 08:46:43;;;;;;;10.23;5.22;;;;;;;;;;4998597;28;20373;-73
2022/01/28 08:49:28;;;;;;;10.45;5.32;;;;;;;;;;5004722;28;20215;-75
2022/01/28 08:52:13;;;;;;;12.18;5.10;;;;;;;;;;4987859;28;20441;-78
2022/01/28 08:54:59;;;;;;;11.43;5.53;;;;;;;;;;4997414;28;20040;-75
2022/01/28 08:57:44;;;;;;;11.98;4.68;;;;;;;;;;4992067;28;20496;-76
2022/01/28 09:00:30;;;;;;;8.82;4.80;;;;;;;;;;4992293;28;20025;-68
2022/01/28 09:03:16;;;;;;;11.50;5.78;;;;;;;;;;4994954;28;20556;-69
2022/01/28 09:06:01;;;;;;;9.00;4.72;;;;;;;;;;5001097;28;20045;-73
2022/01/28 09:08:48;;;;;;;12.23;5.55;;;;;;;;;;4988757;28;20021;-71
2022/01/28 09:11:47;;;;;;;8.23;5.32;;;;;;;;;;4997824;28;20855;-70
2022/01/28 09:14:32;;;;;;;14.35;5.38;;;;;;;;;;4998421;28;20102;-69
2022/01/28 09:17:20;;;;;;;11.38;5.13;;;;;;;;;;4998117;28;20041;-72
2022/01/28 09:20:05;;;;;;;11.52;5.03;;;;;;;;;;4992609;28;20125;-63
2022/01/28 09:22:51;;;;;;;11.25;5.22;;;;;;;;;;4997068;28;20044;-65
2022/01/28 09:25:36;;;;;;;9.93;4.82;;;;;;;;;;4997090;28;20396;-66
2022/01/28 09:28:22;;;;;;;11.20;4.72;;;;;;;;;;5010093;28;20040;-67
2022/01/28 09:31:07;;;;;;;10.25;4.43;;;;;;;;;;4983750;28;20069;-68
2022/01/28 09:33:52;;;;;;;9.48;4.10;;;;;;;;;;5006246;28;20033;-69
2022/01/28 09:36:39;;;;;;;9.40;3.65;;;;;;;;;;4971853;28;20120;-65
2022/01/28 09:39:24;;;;;;;10.52;4.95;;;;;;;;;;4997245;28;20021;-69
2022/01/28 09:42:15;;;;;;;11.15;3.92;;;;;;;;;;5006237;28;20114;-76
2022/01/28 09:45:03;;;;;;;12.07;4.13;;;;;;;;;;5010679;28;20025;-76
2022/01/28 09:47:51;;;;;;;11.43;4.65;;;;;;;;;;4995173;28;20025;-74
2022/01/28 09:50:37;;;;;;;11.05;4.30;;;;;;;;;;5001853;28;20064;-72
2022/01/28 09:53:22;;;;;;;9.75;4.47;;;;;;;;;;5010126;28;20052;-69
2022/01/28 09:56:07;;;;;;;8.77;3.42;;;;;;;;;;5013355;28;20029;-71
2022/01/28 09:58:52;;;;;;;8.80;3.60;;;;;;;;;;4996470;28;20021;-74
2022/01/28 10:01:50;;;;;;;8.50;3.30;;;;;;;;;;5012377;28;20031;-75
2022/01/28 10:04:35;;;;;;;10.45;3.50;;;;;;;;;;5008320;28;20175;-74
2022/01/28 10:07:20;;;;;;;9.50;2.80;;;;;;;;;;4998768;28;20253;-77
2022/01/28 10:10:07;;;;;;;10.45;3.72;;;;;;;;;;5013037;28;20112;-78
2022/01/28 10:13:31;;;;;;;9.43;3.58;;;;;;;;;;5002818;28;20448;-68
2022/01/28 10:16:16;;;;;;;6.43;2.95;;;;;;;;;;5010965;28;20025;-67
2022/01/28 10:19:05;;;;;;;8.73;2.60;;;;;;;;;;4994842;28;20146;-66
2022/01/28 10:21:51;;;;;;;10.73;2.78;;;;;;;;;;5000422;28;20401;-67
2022/01/28 10:24:38;;;;;;;9.80;2.90;;;;;;;;;;5011811;28;20021;-67
2022/01/28 10:27:23;;;;;;;12.07;2.95;;;;;;;;;;5011739;28;20048;-67
2022/01/28 10:30:09;;;;;;;7.13;2.42;;;;;;;;;;5010761;28;20033;-69
2022/01/28 10:33:14;;;;;;;9.45;2.47;;;;;;;;;;5006577;28;20068;-68
2022/01/28 10:36:01;;;;;;;10.68;3.40;;;;;;;;;;4997814;28;20025;-83
2022/01/28 10:38:47;;;;;;;9.18;2.78;;;;;;;;;;4993390;28;20464;-83
2022/01/28 10:41:32;;;;;;;11.40;3.10;;;;;;;;;;5011849;28;20045;-83
2022/01/28 10:44:18;;;;;;;12.20;3.45;;;;;;;;;;4997772;28;20025;-78
2022/01/28 10:47:06;;;;;;;7.18;2.72;;;;;;;;;;5021936;28;20068;-77
2022/01/28 10:49:51;;;;;;;9.55;2.92;;;;;;;;;;5011588;28;20092;-71
2022/01/28 10:52:36;;;;;;;9.52;3.60;;;;;;;;;;4998818;28;20028;-67
2022/01/28 10:55:22;;;;;;;9.48;2.40;;;;;;;;;;5011407;28;20112;-68
2022/01/28 10:58:08;;;;;;;9.25;3.00;;;;;;;;;;5011745;28;20084;-70
2022/01/28 11:00:55;;;;;;;11.57;2.70;;;;;;;;;;5010019;28;20025;-69
2022/01/28 11:03:40;;;;;;;9.73;4.55;;;;;;;;;;5012752;28;20448;-69
2022/01/28 11:06:26;;;;;;;9.52;2.25;;;;;;;;;;5010459;28;20456;-70
2022/01/28 11:09:12;;;;;;;7.72;2.60;;;;;;;;;;5011925;28;20033;-69
2022/01/28 11:11:57;;;;;;;10.70;2.85;;;;;;;;;;5012508;28;20481;-79
2022/01/28 11:14:43;;;;;;;8.63;2.35;;;;;;;;;;4999067;28;20033;-79
2022/01/28 11:17:28;;;;;;;7.63;2.25;;;;;;;;;;4992926;28;20451;-78
2022/01/28 11:20:18;;;;;;;11.90;2.97;;;;;;;;;;5013010;28;20048;-79
2022/01/28 11:23:09;;;;;;;7.40;2.63;;;;;;;;;;5013152;28;20036;-79
2022/01/28 11:26:13;;;;;;;1502.93;752.75;;;;;;;;;;5011610;28;20033;-70
2022/01/28 11:29:02;;;;;;;8.30;2.50;;;;;;;;;;5013434;28;20033;-68
2022/01/28 11:31:49;;;;;;;9.23;2.40;;;;;;;;;;4998357;28;20033;-69
2022/01/28 11:34:34;;;;;;;6.38;2.05;;;;;;;;;;4997341;28;20221;-69
2022/01/28 11:37:24;;;;;;;8.20;2.75;;;;;;;;;;5011852;28;20038;-70
2022/01/28 11:40:11;;;;;;;9.40;2.60;;;;;;;;;;4998196;28;20064;-67
2022/01/28 11:43:34;;;;;;;4.18;2.08;;;;;;;;;;5006393;28;20073;-71
2022/01/28 11:46:23;;;;;;;10.85;2.78;;;;;;;;;;4968612;28;20081;-72
2022/01/28 11:49:08;;;;;;;6.07;2.15;;;;;;;;;;4955917;28;20027;-68
2022/01/28 11:51:53;;;;;;;8.50;2.53;;;;;;;;;;4946328;28;20552;-68
2022/01/28 11:54:38;;;;;;;11.60;3.00;;;;;;;;;;4933821;28;20027;-67
2022/01/28 11:57:26;;;;;;;5.53;2.20;;;;;;;;;;4967878;28;20051;-67
2022/01/28 12:00:18;;;;;;;7.38;2.03;;;;;;;;;;4953101;28;20031;-67
2022/01/28 12:03:19;;;;;;;8.20;2.28;;;;;;;;;;4962476;28;20160;-71
2022/01/28 12:06:08;;;;;;;7.28;2.38;;;;;;;;;;4956921;28;20116;-70
2022/01/28 12:08:53;;;;;;;7.97;2.20;;;;;;;;;;4955911;28;20035;-68
2022/01/28 12:11:41;;;;;;;11.13;3.13;;;;;;;;;;4949635;28;20906;-70
2022/01/28 12:15:08;;;;;;;10.13;3.55;;;;;;;;;;4955091;28;20149;-72
2022/01/28 12:18:04;;;;;;;8.68;2.55;;;;;;;;;;4894366;29;20053;-73
2022/01/28 12:20:49;;;;;;;12.13;3.72;;;;;;;;;;4917589;29;20074;-72
2022/01/28 12:23:35;;;;;;;9.10;2.50;;;;;;;;;;4907092;29;20443;-69
2022/01/28 12:26:20;;;;;;;9.68;2.67;;;;;;;;;;4916569;29;20231;-70
2022/01/28 12:29:05;;;;;;;12.27;2.47;;;;;;;;;;4916669;29;20039;-72
2022/01/28 12:31:56;;;;;;;9.05;2.25;;;;;;;;;;4915404;29;20106;-70
2022/01/28 12:34:42;;;;;;;10.15;2.63;;;;;;;;;;4898817;29;20307;-70
2022/01/28 12:37:33;;;;;;;7.68;2.20;;;;;;;;;;4929770;29;20147;-72
2022/01/28 12:40:24;;;;;;;10.60;2.90;;;;;;;;;;4916591;29;20058;-72
2022/01/28 12:43:10;;;;;;;5.80;2.58;;;;;;;;;;4913165;29;20444;-72
2022/01/28 12:45:59;;;;;;;9.80;2.45;;;;;;;;;;4916973;29;20027;-74
2022/01/28 12:48:50;;;;;;;8.13;2.80;;;;;;;;;;4974517;28;20042;-70
2022/01/28 12:51:39;;;;;;;7.60;3.03;;;;;;;;;;5014812;28;20362;-69
2022/01/28 12:54:28;;;;;;;9.48;3.13;;;;;;;;;;5013925;28;20511;-71
2022/01/28 12:57:18;;;;;;;12.85;3.25;;;;;;;;;;5009442;28;20049;-72
2022/01/28 13:00:03;;;;;;;8.43;2.67;;;;;;;;;;5012923;28;20029;-75
2022/01/28 13:02:51;;;;;;;8.32;3.65;;;;;;;;;;5000957;28;20029;-75
2022/01/28 13:05:43;;;;;;;7.18;2.85;;;;;;;;;;5012327;28;20025;-78
2022/01/28 13:08:29;;;;;;;5.80;2.75;;;;;;;;;;5014252;28;20050;-80
2022/01/28 13:11:14;;;;;;;9.68;3.45;;;;;;;;;;5013970;28;20112;-82
2022/01/28 13:13:59;;;;;;;7.18;3.25;;;;;;;;;;5009789;28;20023;-80
2022/01/28 13:16:46;;;;;;;7.07;3.03;;;;;;;;;;5014617;28;20033;-78
2022/01/28 13:19:31;;;;;;;10.15;3.30;;;;;;;;;;4999479;28;20025;-74
2022/01/28 13:22:21;;;;;;;8.88;3.20;;;;;;;;;;5012246;28;20502;-79
2022/01/28 13:25:17;;;;;;;9.20;3.90;;;;;;;;;;5008681;28;20100;-77
2022/01/28 13:28:10;;;;;;;7.72;3.80;;;;;;;;;;5024408;28;20060;-76
2022/01/28 13:30:56;;;;;;;10.05;3.80;;;;;;;;;;5008001;28;20073;-76
2022/01/28 13:33:41;;;;;;;10.60;3.67;;;;;;;;;;5013525;28;20512;-76
2022/01/28 13:36:26;;;;;;;9.95;3.78;;;;;;;;;;5019604;28;20031;-65
2022/01/28 13:39:16;;;;;;;10.52;3.88;;;;;;;;;;5015128;28;20133;-78
2022/01/28 13:42:09;;;;;;;8.93;3.85;;;;;;;;;;5012795;28;20091;-76
2022/01/28 13:44:54;;;;;;;11.20;4.65;;;;;;;;;;4993419;28;20044;-75
2022/01/28 13:47:50;;;;;;;12.27;4.80;;;;;;;;;;5014506;28;20060;-75
2022/01/28 13:50:37;;;;;;;9.77;5.43;;;;;;;;;;5003741;28;20091;-75
2022/01/28 13:56:11;;;;;;;14.20;4.70;;;;;;;;;;5010187;28;20029;-69
2022/01/28 13:58:57;;;;;;;12.30;4.25;;;;;;;;;;5026817;28;20397;-70
2022/01/28 14:01:46;;;;;;;9.10;4.78;;;;;;;;;;5012460;28;20439;-72
2022/01/28 14:05:00;;;;;;;11.98;5.20;;;;;;;;;;5012472;28;20022;-74
2022/01/28 14:07:53;;;;;;;10.88;4.80;;;;;;;;;;5004414;28;20384;-75
2022/01/28 14:10:38;;;;;;;10.93;4.68;;;;;;;;;;4999431;28;20029;-68
2022/01/28 14:13:24;;;;;;;15.27;5.18;;;;;;;;;;5011370;28;20068;-80
2022/01/28 14:16:14;;;;;;;8.07;4.18;;;;;;;;;;4997512;28;20112;-69
2022/01/28 14:19:00;;;;;;;10.25;4.70;;;;;;;;;;5013687;28;20043;-73
2022/01/28 14:21:46;;;;;;;8.88;4.55;;;;;;;;;;5011485;28;20538;-73
2022/01/28 14:24:32;;;;;;;13.13;5.20;;;;;;;;;;5011694;28;20128;-73
2022/01/28 14:30:21;;;;;;;9.20;4.93;;;;;;;;;;5010238;28;20045;-69
2022/01/28 14:33:07;;;;;;;10.75;5.47;;;;;;;;;;5009932;28;20033;-67
2022/01/28 14:35:52;;;;;;;9.35;4.30;;;;;;;;;;4993435;28;20108;-69
2022/01/28 14:38:37;;;;;;;10.23;4.88;;;;;;;;;;5005396;28;20025;-68
2022/01/28 14:41:23;;;;;;;10.65;4.78;;;;;;;;;;5005880;28;20049;-67
2022/01/28 14:44:08;;;;;;;10.60;5.40;;;;;;;;;;4991563;28;20045;-66
2022/01/28 14:46:53;;;;;;;14.65;5.53;;;;;;;;;;4983127;28;20029;-67
2022/01/28 14:49:39;;;;;;;11.55;5.65;;;;;;;;;;4999227;28;20029;-70
2022/01/28 14:52:28;;;;;;;9.07;4.93;;;;;;;;;;4997241;28;20698;-68
2022/01/28 14:55:14;;;;;;;14.30;5.78;;;;;;;;;;4975925;28;20034;-70
2022/01/28 14:57:59;;;;;;;8.80;4.60;;;;;;;;;;4994165;28;20038;-69
2022/01/28 15:00:44;;;;;;;13.02;4.80;;;;;;;;;;4996518;28;20032;-68
2022/01/28 15:03:30;;;;;;;10.68;4.63;;;;;;;;;;4996659;28;20445;-68
2022/01/28 15:06:15;;;;;;;11.75;4.65;;;;;;;;;;4991116;28;20049;-70
2022/01/28 15:09:02;;;;;;;11.73;5.60;;;;;;;;;;5005503;28;20025;-66
2022/01/28 15:11:48;;;;;;;11.07;5.18;;;;;;;;;;4989015;28;20096;-70
2022/01/28 15:14:33;;;;;;;10.75;5.05;;;;;;;;;;4994504;28;20072;-69
2022/01/28 15:17:19;;;;;;;9.75;4.97;;;;;;;;;;4996385;28;20060;-71
2022/01/28 15:20:04;;;;;;;10.30;4.28;;;;;;;;;;4998863;28;20359;-69
2022/01/28 15:22:49;;;;;;;9.50;4.50;;;;;;;;;;4993132;28;20040;-70
2022/01/28 15:25:35;;;;;;;10.90;5.10;;;;;;;;;;5000163;28;20026;-67
2022/01/28 15:28:22;;;;;;;9.10;4.50;;;;;;;;;;5002838;28;20523;-66
2022/01/28 15:34:18;;;;;;;12.43;4.25;;;;;;;;;;4998673;28;20029;-65
2022/01/28 15:37:03;;;;;;;10.13;5.03;;;;;;;;;;4997104;28;20046;-66
2022/01/28 15:39:49;;;;;;;8.18;4.03;;;;;;;;;;4974090;28;20034;-68
2022/01/28 15:42:34;;;;;;;10.68;4.22;;;;;;;;;;5010218;28;20076;-67
2022/01/28 15:45:20;;;;;;;12.57;4.95;;;;;;;;;;5017056;28;20029;-69
2022/01/28 15:48:05;;;;;;;9.55;3.92;;;;;;;;;;5015996;28;20025;-85
2022/01/28 15:50:51;;;;;;;9.50;4.45;;;;;;;;;;5007648;28;20033;-64
2022/01/28 15:53:37;;;;;;;9.75;4.63;;;;;;;;;;5011947;28;20029;-79
2022/01/28 15:56:23;;;;;;;11.65;4.63;;;;;;;;;;5014176;28;20139;-80
2022/01/28 15:59:08;;;;;;;10.95;4.65;;;;;;;;;;5016805;28;20053;-80
2022/01/28 16:01:54;;;;;;;8.63;4.82;;;;;;;;;;5016996;28;20044;-66
2022/01/28 16:04:41;;;;;;;10.88;5.22;;;;;;;;;;5001512;28;20061;-75
2022/01/28 16:07:28;;;;;;;9.80;4.57;;;;;;;;;;5025319;28;20021;-70
2022/01/28 16:10:20;;;;;;;7.63;4.25;;;;;;;;;;5015668;28;20029;-71
2022/01/28 16:18:42;;;;;;;13.13;5.55;;;;;;;;;;5014187;28;20033;-71
2022/01/28 16:21:28;;;;;;;11.18;5.38;;;;;;;;;;5015655;28;20057;-76
2022/01/28 16:24:13;;;;;;;11.07;6.10;;;;;;;;;;5017450;28;20033;-69
2022/01/28 16:26:59;;;;;;;14.02;4.57;;;;;;;;;;5015811;28;20112;-72
2022/01/28 16:29:45;;;;;;;10.73;5.22;;;;;;;;;;5015474;28;20026;-70
2022/01/28 16:32:30;;;;;;;13.23;5.18;;;;;;;;;;5015329;28;20025;-69
2022/01/28 16:35:16;;;;;;;12.80;5.15;;;;;;;;;;5010158;28;20025;-68
2022/01/28 16:38:02;;;;;;;12.68;5.68;;;;;;;;;;5014816;28;20041;-68
2022/01/28 16:40:47;;;;;;;11.85;5.28;;;;;;;;;;5016712;28;20053;-72
2022/01/28 16:43:33;;;;;;;13.70;5.80;;;;;;;;;;5015085;28;20029;-68
2022/01/28 16:46:19;;;;;;;14.70;5.57;;;;;;;;;;5002882;28;20496;-67
2022/01/28 16:49:04;;;;;;;14.30;6.13;;;;;;;;;;4996922;28;20388;-69
2022/01/28 16:51:51;;;;;;;12.75;4.82;;;;;;;;;;5012348;28;20034;-71
2022/01/28 16:54:36;;;;;;;10.93;4.97;;;;;;;;;;5015198;28;20025;-68
2022/01/28 16:57:22;;;;;;;12.18;6.22;;;;;;;;;;5016068;28;20460;-71
2022/01/28 17:00:10;;;;;;;9.30;4.80;;;;;;;;;;5002601;28;20493;-77
2022/01/28 17:02:55;;;;;;;15.77;6.03;;;;;;;;;;5004844;28;20365;-68
2022/01/28 17:05:40;;;;;;;14.20;5.93;;;;;;;;;;5013682;28;20455;-70
2022/01/28 17:08:25;;;;;;;10.52;5.45;;;;;;;;;;5001409;28;20200;-69
2022/01/28 17:14:02;;;;;;;12.85;6.22;;;;;;;;;;5014764;28;20049;-73
2022/01/28 17:16:47;;;;;;;12.77;5.93;;;;;;;;;;5002285;28;20116;-75
2022/01/28 17:19:33;;;;;;;12.32;5.50;;;;;;;;;;5000496;28;20376;-67
2022/01/28 17:22:18;;;;;;;11.35;5.53;;;;;;;;;;5015953;28;20037;-69
2022/01/28 17:25:04;;;;;;;11.20;5.63;;;;;;;;;;5014580;28;20056;-67
2022/01/28 17:27:50;;;;;;;15.30;6.68;;;;;;;;;;5014710;28;20033;-69
2022/01/28 17:30:36;;;;;;;15.00;6.30;;;;;;;;;;5010046;28;20014;-70
2022/01/28 17:33:21;;;;;;;14.20;6.15;;;;;;;;;;5002226;28;20061;-67
2022/01/28 17:36:06;;;;;;;11.13;5.60;;;;;;;;;;5014615;28;20381;-69
2022/01/28 17:38:52;;;;;;;12.75;6.43;;;;;;;;;;4996231;28;20038;-71
2022/01/28 17:41:37;;;;;;;13.10;6.07;;;;;;;;;;5026989;28;20100;-71
2022/01/28 17:44:23;;;;;;;16.65;7.82;;;;;;;;;;5001973;28;20024;-70
2022/01/28 17:47:08;;;;;;;10.98;6.05;;;;;;;;;;4998440;28;20025;-70
2022/01/28 17:49:54;;;;;;;13.30;7.43;;;;;;;;;;5014246;28;20020;-71
2022/01/28 17:52:39;;;;;;;14.18;6.22;;;;;;;;;;5015127;28;20036;-70
2022/01/28 17:55:29;;;;;;;11.50;6.10;;;;;;;;;;5000705;28;20026;-74
2022/01/28 17:58:14;;;;;;;14.38;7.68;;;;;;;;;;5000078;28;20026;-73
2022/01/28 18:01:00;;;;;;;18.55;8.38;;;;;;;;;;5014003;28;20118;-72
2022/01/28 18:03:45;;;;;;;16.25;6.70;;;;;;;;;;5015202;28;20454;-72
2022/01/28 18:06:31;;;;;;;13.38;7.28;;;;;;;;;;5000575;28;20550;-72
2022/01/28 18:09:16;;;;;;;14.73;7.03;;;;;;;;;;5014859;28;20064;-71
2022/01/28 18:12:01;;;;;;;12.95;6.40;;;;;;;;;;5013791;28;20361;-72
2022/01/28 18:14:47;;;;;;;9.77;5.28;;;;;;;;;;4995876;28;20057;-72
2022/01/28 18:17:32;;;;;;;13.32;6.82;;;;;;;;;;5013430;28;20392;-70
2022/01/28 18:20:17;;;;;;;13.10;6.22;;;;;;;;;;5014652;28;20021;-70